Workman, Minnesota
Current Conditions -  °F | °C
As of 12:14 AM on Saturday 29 Nov 2014 (Local Time) from KAIT Reporting Station
Overcast Overcast  
Wind Chill: 11°   Ceiling: 1200
Heat Index: 21°   Visibility: 10mi
Dew Point: 16°   Wind: 9mph
Humidity: 80%   Direction: 150°SSE
Pressure: 29.6"   Gusts: NA
Location:  46.7281°N, 93.6101°W
Report Text: KAIT 290614Z AUTO 15008KT 10SM OVC012 M06/M09 A2960 RMK AO2
Loading
Personal Weather Stations






























Interactive Weather Map New forecast layout! Learn more

10-Day Weather Forecast

Advertisements
Track Severe Weather on mobile